Time;durP1;ratioP1;P1;durP2;ratioP2;P2;SDS_P1;SDS_P2;PMS_P1;PMS_P2;Temp;Humidity;BMP_temperature;BMP_pressure;BME280_temperature;BME280_humidity;BME280_pressure;Samples;Min_cycle;Max_cycle;Signal;HPM_P1;HPM_P2
2023/06/04 00:02:22;;;;;;;;;;;;;;;21.77;30.76;98080.47;5049356;28;993;-76
2023/06/04 00:04:48;;;;;;;;;;;;;;;21.79;30.93;98085.69;5042607;28;1063;-76
2023/06/04 00:07:13;;;;;;;;;;;;;;;21.55;31.46;98085.09;5076121;28;950;-75
2023/06/04 00:09:39;;;;;;;;;;;;;;;21.60;31.31;98084.56;5076234;28;963;-76
2023/06/04 00:12:05;;;;;;;;;;;;;;;21.75;30.84;98094.28;5059515;28;1076;-75
2023/06/04 00:14:30;;;;;;;;;;;;;;;21.62;31.01;98086.97;5075783;28;851;-76
2023/06/04 00:16:56;;;;;;;;;;;;;;;21.59;31.29;98092.25;5076018;28;1967;-76
2023/06/04 00:19:21;;;;;;;;;;;;;;;21.42;31.48;98087.03;5059044;28;1143;-75
2023/06/04 00:21:47;;;;;;;;;;;;;;;21.25;31.80;98089.84;5059350;28;1262;-75
2023/06/04 00:24:13;;;;;;;;;;;;;;;21.38;31.38;98092.00;5075920;28;886;-75
2023/06/04 00:26:38;;;;;;;;;;;;;;;21.56;30.90;98098.03;5076297;28;863;-75
2023/06/04 00:29:04;;;;;;;;;;;;;;;21.47;31.30;98089.34;5074986;28;867;-75
2023/06/04 00:31:29;;;;;;;;;;;;;;;21.23;31.59;98092.28;5080279;28;929;-76
2023/06/04 00:33:55;;;;;;;;;;;;;;;21.17;31.87;98091.22;5079784;28;1288;-76
2023/06/04 00:36:20;;;;;;;;;;;;;;;22.07;31.17;98090.63;5080395;28;1910;-75
2023/06/04 00:38:46;;;;;;;;;;;;;;;22.68;30.56;98096.63;5029147;28;876;-75
2023/06/04 00:41:12;;;;;;;;;;;;;;;22.43;31.45;98106.63;5079995;28;896;-76
2023/06/04 00:43:37;;;;;;;;;;;;;;;22.02;31.98;98110.16;5063249;28;971;-75
2023/06/04 00:46:03;;;;;;;;;;;;;;;21.41;32.77;98113.75;5098988;28;1029;-76
2023/06/04 00:48:30;;;;;;;;;;;;;;;21.63;31.99;98103.50;5062996;28;980;-76
2023/06/04 00:50:56;;;;;;;;;;;;;;;21.36;32.53;98119.94;5080230;28;899;-76
2023/06/04 00:53:21;;;;;;;;;;;;;;;21.61;32.24;98113.69;5079607;28;977;-76
2023/06/04 00:55:47;;;;;;;;;;;;;;;21.36;32.40;98112.25;5035205;28;1913;-75
2023/06/04 00:58:15;;;;;;;;;;;;;;;21.59;31.68;98117.72;5035267;28;833;-75
2023/06/04 01:00:42;;;;;;;;;;;;;;;21.24;32.24;98116.53;5019208;28;1113;-75
2023/06/04 01:03:10;;;;;;;;;;;;;;;21.37;32.29;98113.03;5018927;28;865;-75
2023/06/04 01:05:39;;;;;;;;;;;;;;;21.70;31.27;98122.34;5018944;28;1189;-76
2023/06/04 01:08:05;;;;;;;;;;;;;;;21.20;32.21;98117.88;5035368;28;980;-77
2023/06/04 01:10:31;;;;;;;;;;;;;;;21.53;31.75;98113.06;5002691;28;965;-76
2023/06/04 01:12:56;;;;;;;;;;;;;;;21.65;31.37;98108.72;5018783;28;1131;-76
2023/06/04 01:15:22;;;;;;;;;;;;;;;21.48;31.58;98122.06;5018729;28;951;-76
2023/06/04 01:17:51;;;;;;;;;;;;;;;21.69;31.41;98117.91;5019053;28;1910;-75
2023/06/04 01:20:22;;;;;;;;;;;;;;;21.42;31.78;98118.19;5002675;28;1267;-76
2023/06/04 01:23:01;;;;;;;;;;;;;;;21.20;32.32;98121.50;5035001;28;951;-75
2023/06/04 01:25:32;;;;;;;;;;;;;;;21.58;31.63;98118.97;5004433;28;1007;-75
2023/06/04 01:27:57;;;;;;;;;;;;;;;21.32;32.07;98112.31;5079339;28;875;-76
2023/06/04 01:30:23;;;;;;;;;;;;;;;21.41;31.78;98113.75;5062826;28;1079;-76
2023/06/04 01:32:49;;;;;;;;;;;;;;;21.57;31.72;98119.44;5098097;28;981;-75
2023/06/04 01:35:15;;;;;;;;;;;;;;;21.59;31.43;98125.44;5083540;28;1248;-75
2023/06/04 01:37:40;;;;;;;;;;;;;;;22.21;31.14;98125.50;5065475;28;1978;-77
2023/06/04 01:40:08;;;;;;;;;;;;;;;22.44;31.46;98121.63;5083421;28;952;-75
2023/06/04 01:42:33;;;;;;;;;;;;;;;22.25;32.16;98127.00;5083376;28;837;-76
2023/06/04 01:44:59;;;;;;;;;;;;;;;22.03;32.26;98137.28;5032266;28;928;-75
2023/06/04 01:47:25;;;;;;;;;;;;;;;22.00;32.01;98124.78;5083930;28;972;-75
2023/06/04 01:49:50;;;;;;;;;;;;;;;21.65;32.32;98134.19;5100885;28;950;-76
2023/06/04 01:52:16;;;;;;;;;;;;;;;21.74;32.17;98142.88;5101679;28;738;-75
2023/06/04 01:54:42;;;;;;;;;;;;;;;21.53;32.33;98144.19;5082732;28;862;-75
2023/06/04 01:57:09;;;;;;;;;;;;;;;21.76;32.04;98157.38;5021949;28;1914;-75
2023/06/04 01:59:36;;;;;;;;;;;;;;;21.95;31.44;98153.66;5005579;28;1218;-75
2023/06/04 02:02:02;;;;;;;;;;;;;;;21.70;31.95;98157.09;5022261;28;1237;-75
2023/06/04 02:04:27;;;;;;;;;;;;;;;21.51;32.26;98153.13;5005196;28;1083;-75
2023/06/04 02:06:53;;;;;;;;;;;;;;;21.44;32.31;98141.16;5022771;28;927;-76
2023/06/04 02:09:18;;;;;;;;;;;;;;;21.42;32.39;98149.31;5005404;28;1251;-76
2023/06/04 02:11:44;;;;;;;;;;;;;;;21.64;31.60;98147.56;5021790;28;944;-75
2023/06/04 02:14:10;;;;;;;;;;;;;;;21.81;31.48;98154.84;5021440;28;949;-75
2023/06/04 02:16:35;;;;;;;;;;;;;;;21.56;31.79;98154.66;5021556;28;1910;-76
2023/06/04 02:19:03;;;;;;;;;;;;;;;21.61;31.72;98145.63;5037874;28;1140;-76
2023/06/04 02:21:28;;;;;;;;;;;;;;;21.42;31.78;98154.97;4989122;28;1140;-76
2023/06/04 02:23:54;;;;;;;;;;;;;;;21.64;31.92;98150.38;5037866;28;915;-76
2023/06/04 02:26:23;;;;;;;;;;;;;;;22.20;31.93;98155.88;5021635;28;1127;-75
2023/06/04 02:28:48;;;;;;;;;;;;;;;22.27;31.99;98147.16;5069991;28;977;-76
2023/06/04 02:31:14;;;;;;;;;;;;;;;22.45;32.02;98157.25;5048824;28;876;-75
2023/06/04 02:33:40;;;;;;;;;;;;;;;21.96;32.15;98160.91;5065108;28;1145;-76
2023/06/04 02:36:05;;;;;;;;;;;;;;;21.54;32.73;98174.88;5082741;28;1910;-75
2023/06/04 02:38:31;;;;;;;;;;;;;;;21.70;32.36;98171.28;5081670;28;1080;-75
2023/06/04 02:40:57;;;;;;;;;;;;;;;21.71;32.16;98178.56;5065978;28;1221;-75
2023/06/04 02:43:22;;;;;;;;;;;;;;;21.19;33.25;98182.16;5081791;28;1099;-75
2023/06/04 02:45:48;;;;;;;;;;;;;;;21.61;32.37;98168.28;5065864;28;1279;-75
2023/06/04 02:48:13;;;;;;;;;;;;;;;21.53;32.28;98166.84;5081613;28;915;-76
2023/06/04 02:50:42;;;;;;;;;;;;;;;21.68;31.97;98172.97;5041027;28;946;-76
2023/06/04 02:53:07;;;;;;;;;;;;;;;21.59;32.10;98177.19;5057163;28;1049;-75
2023/06/04 02:55:33;;;;;;;;;;;;;;;21.76;31.65;98180.03;5024446;28;1171;-76
2023/06/04 02:58:00;;;;;;;;;;;;;;;21.72;31.49;98182.97;5040667;28;1902;-75
2023/06/04 03:00:26;;;;;;;;;;;;;;;21.38;32.22;98188.22;5041401;28;908;-76
2023/06/04 03:02:51;;;;;;;;;;;;;;;21.78;31.69;98183.25;5040707;28;1153;-75
2023/06/04 03:05:17;;;;;;;;;;;;;;;21.58;31.71;98192.59;5040725;28;1447;-75
2023/06/04 03:07:43;;;;;;;;;;;;;;;21.18;32.28;98197.50;5043039;28;1347;-75
2023/06/04 03:10:09;;;;;;;;;;;;;;;21.56;31.25;98182.97;5077315;28;951;-76
2023/06/04 03:12:34;;;;;;;;;;;;;;;21.42;31.78;98192.56;5060669;28;1127;-76
2023/06/04 03:15:00;;;;;;;;;;;;;;;21.29;31.50;98192.41;5043278;28;794;-76
2023/06/04 03:17:26;;;;;;;;;;;;;;;21.46;31.46;98201.78;5076963;28;2220;-76
2023/06/04 03:19:51;;;;;;;;;;;;;;;21.23;31.51;98202.66;5076564;28;1218;-76
2023/06/04 03:22:17;;;;;;;;;;;;;;;21.79;30.66;98208.28;5080037;28;866;-75
2023/06/04 03:24:43;;;;;;;;;;;;;;;21.53;30.72;98212.13;5118545;28;1253;-75
2023/06/04 03:27:08;;;;;;;;;;;;;;;21.44;30.74;98201.41;5084804;28;1173;-75
2023/06/04 03:29:34;;;;;;;;;;;;;;;21.44;30.83;98206.28;5084231;28;1141;-75
2023/06/04 03:32:02;;;;;;;;;;;;;;;21.70;30.56;98193.94;5101146;28;1086;-75
2023/06/04 03:34:31;;;;;;;;;;;;;;;21.62;30.52;98198.19;5084185;28;1107;-76
2023/06/04 03:36:56;;;;;;;;;;;;;;;21.59;30.31;98204.72;5068350;28;1905;-75
2023/06/04 03:39:22;;;;;;;;;;;;;;;21.40;30.81;98208.38;5084455;28;1335;-75
2023/06/04 03:41:48;;;;;;;;;;;;;;;21.53;30.80;98206.47;5084598;28;1332;-77
2023/06/04 03:44:15;;;;;;;;;;;;;;;21.64;30.33;98211.88;5101296;28;889;-75
2023/06/04 03:46:41;;;;;;;;;;;;;;;21.58;30.30;98214.44;5084931;28;1134;-75
2023/06/04 03:49:08;;;;;;;;;;;;;;;21.24;31.08;98209.94;5084174;28;1362;-75
2023/06/04 03:51:34;;;;;;;;;;;;;;;21.46;30.59;98209.47;5084395;28;1138;-75
2023/06/04 03:54:00;;;;;;;;;;;;;;;21.51;30.83;98212.59;5067090;28;1130;-76
2023/06/04 03:56:28;;;;;;;;;;;;;;;21.44;30.64;98214.78;5100508;28;1974;-75
2023/06/04 03:58:55;;;;;;;;;;;;;;;21.29;31.13;98209.38;5100442;28;1181;-76
2023/06/04 04:01:23;;;;;;;;;;;;;;;21.99;31.12;98215.91;5067767;28;1242;-75
2023/06/04 04:03:49;;;;;;;;;;;;;;;22.45;30.81;98219.63;5079329;28;1224;-75
2023/06/04 04:06:16;;;;;;;;;;;;;;;22.69;30.87;98218.16;5063189;28;1260;-75
2023/06/04 04:08:43;;;;;;;;;;;;;;;22.35;31.28;98213.00;5079406;28;1434;-75
2023/06/04 04:11:11;;;;;;;;;;;;;;;21.95;31.52;98215.19;5063157;28;1238;-76
2023/06/04 04:13:37;;;;;;;;;;;;;;;21.72;31.58;98219.78;5095756;28;1226;-75
2023/06/04 04:16:03;;;;;;;;;;;;;;;21.61;31.77;98224.91;5063412;28;1985;-75
2023/06/04 04:18:31;;;;;;;;;;;;;;;21.57;31.66;98225.00;5062005;28;1235;-76
2023/06/04 04:20:57;;;;;;;;;;;;;;;21.70;31.45;98222.25;5079379;28;1195;-76
2023/06/04 04:23:23;;;;;;;;;;;;;;;21.65;31.73;98219.16;5079138;28;1266;-75
2023/06/04 04:25:49;;;;;;;;;;;;;;;21.67;31.55;98223.16;5062725;28;1059;-76
2023/06/04 04:28:17;;;;;;;;;;;;;;;21.54;31.98;98230.72;5062381;28;1247;-75
2023/06/04 04:30:44;;;;;;;;;;;;;;;21.46;32.10;98232.13;5061277;28;1300;-75
2023/06/04 04:33:10;;;;;;;;;;;;;;;21.73;31.39;98240.41;5026247;28;1119;-75
2023/06/04 04:35:45;;;;;;;;;;;;;;;21.67;31.48;98234.47;5043246;28;1969;-76
2023/06/04 04:38:13;;;;;;;;;;;;;;;21.55;31.80;98238.78;5035543;28;1137;-75
2023/06/04 04:40:47;;;;;;;;;;;;;;;21.55;31.55;98238.78;5014378;28;1226;-75
2023/06/04 04:43:14;;;;;;;;;;;;;;;21.46;31.65;98243.47;5033583;28;1143;-76
2023/06/04 04:45:39;;;;;;;;;;;;;;;21.50;31.70;98241.31;4999750;28;1258;-75
2023/06/04 04:48:07;;;;;;;;;;;;;;;21.55;31.71;98244.47;5014735;28;1244;-75
2023/06/04 04:50:33;;;;;;;;;;;;;;;21.70;31.41;98250.56;5015950;28;881;-75
2023/06/04 04:52:59;;;;;;;;;;;;;;;21.53;31.63;98246.13;4999141;28;1096;-75
2023/06/04 04:55:25;;;;;;;;;;;;;;;21.75;31.22;98250.03;5015330;28;1218;-75
2023/06/04 04:57:52;;;;;;;;;;;;;;;21.58;31.42;98243.56;4995626;28;1910;-75
2023/06/04 05:00:20;;;;;;;;;;;;;;;21.87;30.94;98242.13;4980007;28;1253;-76
2023/06/04 05:02:48;;;;;;;;;;;;;;;21.71;31.07;98245.69;5011902;28;1372;-77
2023/06/04 05:05:14;;;;;;;;;;;;;;;21.48;31.54;98244.59;4996219;28;1153;-75
2023/06/04 05:07:41;;;;;;;;;;;;;;;21.66;31.30;98252.72;4981106;28;1236;-76
2023/06/04 05:10:08;;;;;;;;;;;;;;;21.55;31.54;98243.63;5000979;28;1312;-76
2023/06/04 05:12:35;;;;;;;;;;;;;;;22.29;31.37;98252.41;5019396;28;1109;-76
2023/06/04 05:15:03;;;;;;;;;;;;;;;22.32;31.76;98251.53;5002865;28;1234;-76
2023/06/04 05:17:29;;;;;;;;;;;;;;;22.78;31.36;98243.03;5003606;28;1922;-76
2023/06/04 05:20:11;;;;;;;;;;;;;;;22.51;31.71;98264.00;5003010;28;1231;-76
2023/06/04 05:22:38;;;;;;;;;;;;;;;22.05;31.92;98265.94;5005313;28;1322;-75
2023/06/04 05:25:08;;;;;;;;;;;;;;;21.93;32.18;98257.34;5003056;28;1246;-76
2023/06/04 05:27:35;;;;;;;;;;;;;;;21.78;32.22;98263.34;5023210;28;1211;-75
2023/06/04 05:30:03;;;;;;;;;;;;;;;21.76;31.63;98271.50;5065478;28;1416;-76
2023/06/04 05:32:30;;;;;;;;;;;;;;;21.66;32.17;98261.22;5042833;28;1134;-75
2023/06/04 05:34:58;;;;;;;;;;;;;;;21.88;31.52;98280.53;5026243;28;1201;-75
2023/06/04 05:37:28;;;;;;;;;;;;;;;21.65;32.13;98282.25;5042681;28;1895;-77
2023/06/04 05:39:55;;;;;;;;;;;;;;;21.66;31.71;98285.88;5042496;28;1095;-75
2023/06/04 05:42:21;;;;;;;;;;;;;;;21.71;31.63;98279.69;5058862;28;1058;-76
2023/06/04 05:44:46;;;;;;;;;;;;;;;21.81;31.62;98284.31;5041880;28;1134;-76
2023/06/04 05:47:16;;;;;;;;;;;;;;;21.93;31.35;98291.34;5042856;28;1428;-76
2023/06/04 05:49:42;;;;;;;;;;;;;;;21.66;31.47;98283.84;5026007;28;1273;-75
2023/06/04 05:52:10;;;;;;;;;;;;;;;21.57;31.84;98280.81;5026034;28;1220;-76
2023/06/04 05:54:37;;;;;;;;;;;;;;;21.62;31.51;98285.16;5025433;28;1159;-76
2023/06/04 05:57:04;;;;;;;;;;;;;;;21.40;31.78;98288.47;5042084;28;1918;-76
2023/06/04 05:59:30;;;;;;;;;;;;;;;21.83;31.04;98288.31;5041692;28;1270;-75
2023/06/04 06:01:56;;;;;;;;;;;;;;;21.76;30.91;98287.66;5041941;28;1209;-76
2023/06/04 06:04:22;;;;;;;;;;;;;;;21.34;31.79;98293.03;5057942;28;1150;-75
2023/06/04 06:06:48;;;;;;;;;;;;;;;21.51;31.33;98276.91;5046603;28;1316;-76
2023/06/04 06:09:14;;;;;;;;;;;;;;;21.42;31.57;98291.66;5046695;28;1366;-77
2023/06/04 06:11:41;;;;;;;;;;;;;;;21.12;32.38;98300.34;5046131;28;1225;-75
2023/06/04 06:14:06;;;;;;;;;;;;;;;21.62;31.28;98299.31;5079094;28;1148;-76
2023/06/04 06:16:32;;;;;;;;;;;;;;;21.47;31.27;98302.47;5061763;28;1910;-76
2023/06/04 06:18:58;;;;;;;;;;;;;;;21.59;31.38;98306.66;5044280;28;1240;-76
2023/06/04 06:21:24;;;;;;;;;;;;;;;21.63;31.04;98295.25;5061705;28;1271;-76
2023/06/04 06:23:49;;;;;;;;;;;;;;;21.77;30.96;98298.56;5061089;28;864;-75
2023/06/04 06:26:15;;;;;;;;;;;;;;;21.66;31.21;98302.84;5028550;28;1086;-75
2023/06/04 06:28:46;;;;;;;;;;;;;;;21.54;31.29;98299.47;5045058;28;1213;-76
2023/06/04 06:31:13;;;;;;;;;;;;;;;21.33;31.67;98306.38;5044558;28;1324;-76
2023/06/04 06:33:40;;;;;;;;;;;;;;;21.50;31.52;98304.44;5060821;28;1259;-75
2023/06/04 06:36:11;;;;;;;;;;;;;;;21.29;31.95;98299.97;5060859;28;1986;-76
2023/06/04 06:38:36;;;;;;;;;;;;;;;21.66;31.15;98306.50;5027564;28;882;-75
2023/06/04 06:41:02;;;;;;;;;;;;;;;21.62;31.49;98311.44;5021086;28;916;-76
2023/06/04 06:43:28;;;;;;;;;;;;;;;21.87;30.98;98299.56;5020672;28;931;-75
2023/06/04 06:45:53;;;;;;;;;;;;;;;21.87;31.03;98308.06;5001129;28;908;-76
2023/06/04 06:48:19;;;;;;;;;;;;;;;21.61;31.35;98309.88;4984766;28;1465;-75
2023/06/04 06:50:44;;;;;;;;;;;;;;;21.56;31.61;98308.34;5001343;28;1306;-75
2023/06/04 06:53:10;;;;;;;;;;;;;;;21.24;32.11;98314.66;5000963;28;964;-76
2023/06/04 06:55:35;;;;;;;;;;;;;;;21.57;31.50;98309.13;4981529;28;989;-76
2023/06/04 06:58:00;;;;;;;;;;;;;;;21.73;31.13;98306.34;4981446;28;1906;-75
2023/06/04 07:00:27;;;;;;;;;;;;;;;21.61;31.35;98315.53;4961777;28;889;-76
2023/06/04 07:02:53;;;;;;;;;;;;;;;21.85;30.99;98319.81;4962522;28;988;-75
2023/06/04 07:05:18;;;;;;;;;;;;;;;21.79;30.84;98315.91;4946097;28;927;-76
2023/06/04 07:07:44;;;;;;;;;;;;;;;21.66;30.99;98317.84;4958878;28;932;-75
2023/06/04 07:10:10;;;;;;;;;;;;;;;21.45;31.34;98318.28;4958674;29;967;-75
2023/06/04 07:12:35;;;;;;;;;;;;;;;21.61;31.23;98320.41;4943034;29;916;-75
2023/06/04 07:15:01;;;;;;;;;;;;;;;21.57;31.33;98320.47;4958958;29;919;-75
2023/06/04 07:17:27;;;;;;;;;;;;;;;21.41;31.58;98328.91;4958564;28;1915;-75
2023/06/04 07:19:52;;;;;;;;;;;;;;;21.64;31.54;98328.78;4958527;29;1071;-75
2023/06/04 07:22:18;;;;;;;;;;;;;;;21.59;31.17;98334.97;4946200;28;880;-76
2023/06/04 07:24:44;;;;;;;;;;;;;;;21.58;31.54;98324.88;4997320;28;894;-75
2023/06/04 07:27:12;;;;;;;;;;;;;;;21.81;31.02;98324.78;5000670;28;1001;-76
2023/06/04 07:29:37;;;;;;;;;;;;;;;21.80;31.01;98328.84;5000193;28;1047;-75
2023/06/04 07:32:03;;;;;;;;;;;;;;;21.75;30.94;98326.53;5029662;28;923;-76
2023/06/04 07:34:29;;;;;;;;;;;;;;;21.51;31.41;98330.72;5056271;28;978;-75
2023/06/04 07:36:54;;;;;;;;;;;;;;;21.61;31.50;98324.03;5056655;28;2047;-75
2023/06/04 07:39:20;;;;;;;;;;;;;;;21.50;31.42;98331.91;5072916;28;1028;-76
2023/06/04 07:41:45;;;;;;;;;;;;;;;21.66;31.14;98332.00;5077230;28;847;-76
2023/06/04 07:44:11;;;;;;;;;;;;;;;21.46;31.47;98332.00;5076937;28;1200;-76
2023/06/04 07:46:36;;;;;;;;;;;;;;;21.81;30.88;98327.63;5078709;28;822;-75
2023/06/04 07:49:02;;;;;;;;;;;;;;;21.72;30.90;98344.41;5077258;28;1271;-76
2023/06/04 07:51:27;;;;;;;;;;;;;;;21.72;30.97;98350.06;5078323;28;911;-75
2023/06/04 07:53:53;;;;;;;;;;;;;;;21.57;31.15;98351.59;5062564;28;1243;-76
2023/06/04 07:56:19;;;;;;;;;;;;;;;21.75;30.67;98352.00;5096840;28;1901;-75
2023/06/04 07:58:45;;;;;;;;;;;;;;;21.53;30.99;98350.88;5062481;28;936;-75
2023/06/04 08:01:10;;;;;;;;;;;;;;;21.62;31.06;98351.09;5096819;28;962;-75
2023/06/04 08:03:36;;;;;;;;;;;;;;;21.68;30.92;98360.66;5096300;28;958;-76
2023/06/04 08:06:02;;;;;;;;;;;;;;;21.83;31.34;98367.63;5063160;28;1095;-76
2023/06/04 08:08:27;;;;;;;;;;;;;;;22.17;31.75;98360.81;5062189;28;1157;-75
2023/06/04 08:10:53;;;;;;;;;;;;;;;22.28;31.83;98375.56;5096406;28;1065;-76
2023/06/04 08:13:18;;;;;;;;;;;;;;;22.20;32.02;98368.44;5096022;28;872;-77
2023/06/04 08:15:44;;;;;;;;;;;;;;;22.10;31.80;98369.47;5096313;28;971;-76
2023/06/04 08:18:11;;;;;;;;;;;;;;;22.12;31.36;98372.66;5078892;28;1902;-75
2023/06/04 08:20:37;;;;;;;;;;;;;;;21.67;31.72;98370.41;5079485;28;1397;-75
2023/06/04 08:23:02;;;;;;;;;;;;;;;21.51;32.17;98367.50;5095387;28;884;-77
2023/06/04 08:25:29;;;;;;;;;;;;;;;21.54;32.12;98372.28;5059667;28;1172;-76
2023/06/04 08:27:55;;;;;;;;;;;;;;;21.73;31.44;98374.31;5077346;28;859;-75
2023/06/04 08:30:21;;;;;;;;;;;;;;;21.98;30.99;98378.66;5076739;28;899;-75
2023/06/04 08:32:46;;;;;;;;;;;;;;;21.78;31.38;98385.13;5076183;28;864;-75
2023/06/04 08:35:12;;;;;;;;;;;;;;;21.77;31.36;98385.59;5077219;28;878;-75
2023/06/04 08:37:37;;;;;;;;;;;;;;;21.72;31.12;98381.22;5077790;28;1909;-76
2023/06/04 08:40:04;;;;;;;;;;;;;;;21.87;30.91;98378.88;5077070;28;859;-76
2023/06/04 08:42:31;;;;;;;;;;;;;;;21.55;31.33;98379.53;5077527;28;868;-75
2023/06/04 08:44:57;;;;;;;;;;;;;;;21.47;31.58;98378.91;5059332;28;920;-76
2023/06/04 08:47:22;;;;;;;;;;;;;;;21.60;31.36;98381.88;5075374;28;902;-75
2023/06/04 08:49:49;;;;;;;;;;;;;;;21.52;31.47;98381.22;5058540;28;970;-76
2023/06/04 08:52:14;;;;;;;;;;;;;;;21.72;31.03;98384.06;5058526;28;925;-75
2023/06/04 08:54:40;;;;;;;;;;;;;;;21.65;31.13;98381.34;5041725;28;929;-75
2023/06/04 08:57:05;;;;;;;;;;;;;;;21.78;31.07;98379.47;5025650;28;1918;-77
2023/06/04 08:59:31;;;;;;;;;;;;;;;21.44;31.61;98384.63;5041880;28;1075;-76
2023/06/04 09:01:56;;;;;;;;;;;;;;;21.63;31.38;98389.50;5058263;28;1019;-75
2023/06/04 09:04:22;;;;;;;;;;;;;;;21.59;31.10;98391.59;5041626;28;1123;-76
2023/06/04 09:06:48;;;;;;;;;;;;;;;21.81;31.05;98392.78;5042031;28;1170;-76
2023/06/04 09:09:15;;;;;;;;;;;;;;;21.69;30.80;98396.25;5015304;28;902;-76
2023/06/04 09:11:46;;;;;;;;;;;;;;;21.58;30.91;98396.47;5015773;28;964;-75
2023/06/04 09:14:12;;;;;;;;;;;;;;;21.92;30.57;98392.53;5015240;28;926;-76
2023/06/04 09:16:44;;;;;;;;;;;;;;;21.97;30.52;98388.41;4999463;28;1910;-76
2023/06/04 09:19:10;;;;;;;;;;;;;;;21.50;31.26;98385.72;5031859;28;983;-76
2023/06/04 09:21:45;;;;;;;;;;;;;;;21.52;31.07;98386.88;5015292;28;1298;-75
2023/06/04 09:24:11;;;;;;;;;;;;;;;21.49;31.36;98386.94;4998658;28;913;-76
2023/06/04 09:26:36;;;;;;;;;;;;;;;21.74;30.63;98381.56;4999062;28;1101;-76
2023/06/04 09:29:02;;;;;;;;;;;;;;;21.48;31.21;98386.16;4995333;28;1169;-76
2023/06/04 09:31:30;;;;;;;;;;;;;;;21.45;31.10;98389.06;4963296;28;1014;-76
2023/06/04 09:33:56;;;;;;;;;;;;;;;21.73;30.80;98385.66;4994970;28;902;-76
2023/06/04 09:36:21;;;;;;;;;;;;;;;21.45;31.48;98391.88;4995683;28;1994;-75
2023/06/04 09:38:47;;;;;;;;;;;;;;;21.37;31.21;98396.09;4995239;28;919;-75
2023/06/04 09:41:16;;;;;;;;;;;;;;;21.50;31.21;98388.53;5016046;28;1259;-75
2023/06/04 09:43:43;;;;;;;;;;;;;;;21.63;31.00;98391.53;5034556;28;1218;-75
2023/06/04 09:46:18;;;;;;;;;;;;;;;21.53;30.94;98396.19;5034651;28;973;-75
2023/06/04 09:48:44;;;;;;;;;;;;;;;21.42;30.97;98392.75;5034420;28;1435;-76
2023/06/04 09:51:15;;;;;;;;;;;;;;;21.29;31.69;98401.06;5018713;28;902;-76
2023/06/04 09:53:40;;;;;;;;;;;;;;;21.30;31.21;98397.84;5053644;28;892;-75
2023/06/04 09:56:07;;;;;;;;;;;;;;;21.40;30.96;98400.88;5025379;28;1968;-75
2023/06/04 09:58:33;;;;;;;;;;;;;;;21.52;30.84;98398.22;5025246;28;1086;-75
2023/06/04 10:00:59;;;;;;;;;;;;;;;21.50;31.16;98399.88;5075278;28;930;-75
2023/06/04 10:03:26;;;;;;;;;;;;;;;21.43;31.10;98394.34;5078691;28;887;-75
2023/06/04 10:05:55;;;;;;;;;;;;;;;21.53;31.24;98393.34;5080291;28;872;-75
2023/06/04 10:08:24;;;;;;;;;;;;;;;21.59;30.90;98400.88;5078610;28;854;-75
2023/06/04 10:10:49;;;;;;;;;;;;;;;21.64;30.85;98388.25;5062421;28;1343;-76
2023/06/04 10:13:18;;;;;;;;;;;;;;;21.93;30.24;98387.66;5078443;28;973;-75
2023/06/04 10:15:45;;;;;;;;;;;;;;;21.72;30.65;98394.59;5078741;28;954;-75
2023/06/04 10:18:10;;;;;;;;;;;;;;;21.76;30.22;98389.63;5078331;28;1977;-76
2023/06/04 10:20:36;;;;;;;;;;;;;;;21.45;30.86;98395.53;5079562;28;1335;-76
2023/06/04 10:23:01;;;;;;;;;;;;;;;21.69;30.27;98390.59;5080548;28;861;-75
2023/06/04 10:25:27;;;;;;;;;;;;;;;21.79;30.46;98383.09;5061720;28;1244;-76
2023/06/04 10:27:52;;;;;;;;;;;;;;;21.69;30.65;98384.91;5044661;28;1072;-75
2023/06/04 10:30:18;;;;;;;;;;;;;;;21.33;31.06;98379.97;5077734;28;920;-76
2023/06/04 10:32:44;;;;;;;;;;;;;;;21.79;30.54;98383.91;5060883;28;898;-76
2023/06/04 10:35:09;;;;;;;;;;;;;;;21.69;30.68;98384.91;5060515;28;1079;-75
2023/06/04 10:37:35;;;;;;;;;;;;;;;21.69;30.59;98387.75;5061037;28;1917;-75
2023/06/04 10:40:00;;;;;;;;;;;;;;;21.47;31.04;98378.91;5077356;28;876;-75
2023/06/04 10:42:26;;;;;;;;;;;;;;;21.79;30.33;98389.56;5038620;28;1100;-76
2023/06/04 10:44:52;;;;;;;;;;;;;;;21.12;31.79;98396.53;5037909;28;1227;-76
2023/06/04 10:47:18;;;;;;;;;;;;;;;21.46;31.11;98387.84;5038131;28;1130;-76
2023/06/04 10:49:44;;;;;;;;;;;;;;;21.50;30.89;98385.72;5037492;28;1240;-76
2023/06/04 10:52:10;;;;;;;;;;;;;;;21.75;30.75;98383.16;5037967;28;1018;-77
2023/06/04 10:54:35;;;;;;;;;;;;;;;21.48;31.22;98388.19;5037753;28;955;-75
2023/06/04 10:57:10;;;;;;;;;;;;;;;21.71;30.92;98376.81;5037709;28;1921;-76
2023/06/04 10:59:35;;;;;;;;;;;;;;;21.81;30.58;98380.63;5034509;28;1449;-76
2023/06/04 11:02:04;;;;;;;;;;;;;;;21.89;30.63;98376.41;4988320;28;1250;-76
2023/06/04 11:04:30;;;;;;;;;;;;;;;21.74;30.67;98387.25;5020598;28;965;-76
2023/06/04 11:07:08;;;;;;;;;;;;;;;21.66;30.85;98391.47;5020110;28;1231;-76
2023/06/04 11:09:51;;;;;;;;;;;;;;;21.43;31.39;98388.69;5021178;28;1000;-76
2023/06/04 11:12:17;;;;;;;;;;;;;;;21.11;32.16;98401.41;5021671;28;906;-75
2023/06/04 11:14:58;;;;;;;;;;;;;;;21.63;30.82;98397.19;5024595;28;1307;-76
2023/06/04 11:17:23;;;;;;;;;;;;;;;21.51;31.33;98384.50;5041124;28;1985;-76
2023/06/04 11:19:49;;;;;;;;;;;;;;;21.51;31.12;98393.78;5024516;28;1235;-76
2023/06/04 11:22:15;;;;;;;;;;;;;;;21.68;30.84;98402.34;5025242;28;1123;-76
2023/06/04 11:24:40;;;;;;;;;;;;;;;21.44;31.51;98404.44;5040885;28;962;-76
2023/06/04 11:27:06;;;;;;;;;;;;;;;21.77;30.55;98402.56;5057736;28;931;-76
2023/06/04 11:29:31;;;;;;;;;;;;;;;21.54;31.01;98406.25;5024154;28;877;-76
2023/06/04 11:31:57;;;;;;;;;;;;;;;21.72;30.96;98403.88;5024528;28;876;-76
2023/06/04 11:34:26;;;;;;;;;;;;;;;21.43;31.26;98394.34;5057026;28;973;-76
2023/06/04 11:36:54;;;;;;;;;;;;;;;21.63;30.87;98392.34;5033393;28;1895;-77
2023/06/04 11:39:20;;;;;;;;;;;;;;;21.56;30.78;98406.66;5076645;28;1004;-77
2023/06/04 11:41:45;;;;;;;;;;;;;;;21.56;31.19;98404.59;5027310;28;1439;-76
2023/06/04 11:44:11;;;;;;;;;;;;;;;21.58;31.18;98412.66;5043449;28;1162;-76
2023/06/04 11:46:39;;;;;;;;;;;;;;;21.76;30.47;98404.63;5060655;28;1090;-76
2023/06/04 11:49:05;;;;;;;;;;;;;;;21.81;30.44;98403.28;5043148;28;959;-77
2023/06/04 11:51:30;;;;;;;;;;;;;;;21.31;31.30;98399.44;5044079;28;1068;-76
2023/06/04 11:53:56;;;;;;;;;;;;;;;21.67;30.57;98401.56;4984693;28;1131;-76
2023/06/04 11:56:22;;;;;;;;;;;;;;;21.56;30.76;98403.81;5032971;28;1914;-77
2023/06/04 11:58:48;;;;;;;;;;;;;;;21.69;30.37;98406.78;5020123;28;1353;-76
2023/06/04 12:01:13;;;;;;;;;;;;;;;21.66;30.65;98401.97;5020868;28;975;-76
2023/06/04 12:03:39;;;;;;;;;;;;;;;21.64;30.78;98405.25;5019607;28;909;-76
2023/06/04 12:06:17;;;;;;;;;;;;;;;21.63;30.53;98403.66;5004617;28;1150;-76
2023/06/04 12:08:46;;;;;;;;;;;;;;;21.69;30.52;98407.56;5016603;28;1079;-77
2023/06/04 12:11:31;;;;;;;;;;;;;;;21.64;30.79;98402.41;4984640;28;1224;-76
2023/06/04 12:13:57;;;;;;;;;;;;;;;21.60;30.64;98398.84;5000315;28;1031;-76
2023/06/04 12:16:22;;;;;;;;;;;;;;;21.73;30.30;98401.84;5016386;28;1902;-76
2023/06/04 12:18:50;;;;;;;;;;;;;;;21.59;30.46;98402.94;5016478;28;989;-77
2023/06/04 12:21:21;;;;;;;;;;;;;;;21.83;30.40;98401.63;5016988;28;1082;-76
2023/06/04 12:23:47;;;;;;;;;;;;;;;21.75;30.55;98403.00;5016104;28;966;-76
2023/06/04 12:26:28;;;;;;;;;;;;;;;21.82;30.10;98405.69;5000875;28;1077;-76
2023/06/04 12:29:13;;;;;;;;;;;;;;;21.61;30.84;98399.69;4984020;28;1105;-76
2023/06/04 12:31:41;;;;;;;;;;;;;;;21.70;30.57;98397.84;5037296;28;879;-76
2023/06/04 12:34:07;;;;;;;;;;;;;;;21.57;30.70;98400.53;5058828;28;898;-76
2023/06/04 12:36:35;;;;;;;;;;;;;;;21.51;30.93;98393.00;5056594;28;1894;-75
2023/06/04 12:39:02;;;;;;;;;;;;;;;21.69;30.46;98401.91;5059534;28;893;-76
2023/06/04 12:41:27;;;;;;;;;;;;;;;21.64;30.55;98399.59;5043121;28;1137;-76
2023/06/04 12:43:53;;;;;;;;;;;;;;;21.68;30.59;98400.31;5019245;28;1224;-76
2023/06/04 12:46:18;;;;;;;;;;;;;;;21.53;30.80;98399.00;5020181;28;973;-76
2023/06/04 12:48:44;;;;;;;;;;;;;;;21.44;30.94;98401.63;5035694;28;965;-77
2023/06/04 12:51:12;;;;;;;;;;;;;;;21.59;30.63;98405.75;5020284;28;885;-76
2023/06/04 12:53:40;;;;;;;;;;;;;;;21.37;31.16;98396.09;5035582;28;1163;-76
2023/06/04 12:56:06;;;;;;;;;;;;;;;21.97;30.08;98394.06;5019801;28;1981;-76
2023/06/04 12:58:32;;;;;;;;;;;;;;;21.75;30.29;98403.00;5015942;28;1166;-76